sensor_id;sensor_type;location;lat;lon;timestamp;P1;durP1;ratioP1;P2;durP2;ratioP2
68097;SDS011;54886;47.036;15.466;2023-07-13T00:04:48;1.75;;;1.50;;
68097;SDS011;54886;47.036;15.466;2023-07-13T00:07:15;3.03;;;1.53;;
68097;SDS011;54886;47.036;15.466;2023-07-13T00:09:44;4.00;;;1.70;;
68097;SDS011;54886;47.036;15.466;2023-07-13T00:12:22;3.53;;;1.65;;
68097;SDS011;54886;47.036;15.466;2023-07-13T00:14:59;3.65;;;1.88;;
68097;SDS011;54886;47.036;15.466;2023-07-13T00:20:47;2.67;;;1.70;;
68097;SDS011;54886;47.036;15.466;2023-07-13T00:26:35;3.50;;;1.63;;
68097;SDS011;54886;47.036;15.466;2023-07-13T00:29:00;3.97;;;1.50;;
68097;SDS011;54886;47.036;15.466;2023-07-13T00:34:47;2.55;;;1.60;;
68097;SDS011;54886;47.036;15.466;2023-07-13T00:40:35;3.08;;;1.50;;
68097;SDS011;54886;47.036;15.466;2023-07-13T00:43:00;3.30;;;1.50;;
68097;SDS011;54886;47.036;15.466;2023-07-13T00:47:52;2.95;;;1.40;;
68097;SDS011;54886;47.036;15.466;2023-07-13T00:50:19;1.52;;;1.23;;
68097;SDS011;54886;47.036;15.466;2023-07-13T00:52:47;3.38;;;1.58;;
68097;SDS011;54886;47.036;15.466;2023-07-13T00:55:15;2.33;;;1.30;;
68097;SDS011;54886;47.036;15.466;2023-07-13T01:01:04;1.58;;;1.40;;
68097;SDS011;54886;47.036;15.466;2023-07-13T01:03:30;1.55;;;1.15;;
68097;SDS011;54886;47.036;15.466;2023-07-13T01:05:55;2.58;;;1.40;;
68097;SDS011;54886;47.036;15.466;2023-07-13T01:08:21;2.83;;;1.33;;
68097;SDS011;54886;47.036;15.466;2023-07-13T01:10:54;3.67;;;1.30;;
68097;SDS011;54886;47.036;15.466;2023-07-13T01:16:44;1.70;;;1.25;;
68097;SDS011;54886;47.036;15.466;2023-07-13T01:19:19;2.33;;;1.40;;
68097;SDS011;54886;47.036;15.466;2023-07-13T01:22:00;2.17;;;1.40;;
68097;SDS011;54886;47.036;15.466;2023-07-13T01:25:04;2.90;;;1.80;;
68097;SDS011;54886;47.036;15.466;2023-07-13T01:30:51;1.42;;;1.30;;
68097;SDS011;54886;47.036;15.466;2023-07-13T01:36:38;1.50;;;1.40;;
68097;SDS011;54886;47.036;15.466;2023-07-13T01:42:25;4.78;;;1.77;;
68097;SDS011;54886;47.036;15.466;2023-07-13T01:44:51;3.85;;;1.90;;
68097;SDS011;54886;47.036;15.466;2023-07-13T01:47:17;5.22;;;2.00;;
68097;SDS011;54886;47.036;15.466;2023-07-13T01:53:04;6.40;;;1.98;;
68097;SDS011;54886;47.036;15.466;2023-07-13T01:55:30;4.70;;;1.90;;
68097;SDS011;54886;47.036;15.466;2023-07-13T01:57:56;6.40;;;2.10;;
68097;SDS011;54886;47.036;15.466;2023-07-13T02:00:22;4.18;;;2.00;;
68097;SDS011;54886;47.036;15.466;2023-07-13T02:02:48;7.10;;;2.38;;
68097;SDS011;54886;47.036;15.466;2023-07-13T02:05:14;5.50;;;1.98;;
68097;SDS011;54886;47.036;15.466;2023-07-13T02:07:40;6.47;;;2.13;;
68097;SDS011;54886;47.036;15.466;2023-07-13T02:10:06;6.25;;;2.10;;
68097;SDS011;54886;47.036;15.466;2023-07-13T02:12:33;5.35;;;1.98;;
68097;SDS011;54886;47.036;15.466;2023-07-13T02:18:21;6.07;;;2.20;;
68097;SDS011;54886;47.036;15.466;2023-07-13T02:20:46;4.30;;;1.83;;
68097;SDS011;54886;47.036;15.466;2023-07-13T02:23:12;7.47;;;2.20;;
68097;SDS011;54886;47.036;15.466;2023-07-13T02:25:38;3.72;;;1.92;;
68097;SDS011;54886;47.036;15.466;2023-07-13T02:28:03;6.57;;;1.83;;
68097;SDS011;54886;47.036;15.466;2023-07-13T02:33:51;6.40;;;2.38;;
68097;SDS011;54886;47.036;15.466;2023-07-13T02:36:16;5.00;;;2.13;;
68097;SDS011;54886;47.036;15.466;2023-07-13T02:38:43;4.30;;;1.90;;
68097;SDS011;54886;47.036;15.466;2023-07-13T02:41:09;3.42;;;1.73;;
68097;SDS011;54886;47.036;15.466;2023-07-13T02:43:36;6.57;;;2.13;;
68097;SDS011;54886;47.036;15.466;2023-07-13T02:49:24;5.47;;;1.80;;
68097;SDS011;54886;47.036;15.466;2023-07-13T02:51:51;5.03;;;1.83;;
68097;SDS011;54886;47.036;15.466;2023-07-13T02:54:16;5.17;;;1.90;;
68097;SDS011;54886;47.036;15.466;2023-07-13T02:56:42;8.23;;;2.10;;
68097;SDS011;54886;47.036;15.466;2023-07-13T02:59:08;5.18;;;1.90;;
68097;SDS011;54886;47.036;15.466;2023-07-13T03:04:56;3.83;;;1.88;;
68097;SDS011;54886;47.036;15.466;2023-07-13T03:07:22;5.28;;;1.90;;
68097;SDS011;54886;47.036;15.466;2023-07-13T03:09:47;4.25;;;2.10;;
68097;SDS011;54886;47.036;15.466;2023-07-13T03:15:35;4.43;;;1.95;;
68097;SDS011;54886;47.036;15.466;2023-07-13T03:18:00;6.35;;;2.10;;
68097;SDS011;54886;47.036;15.466;2023-07-13T03:20:26;5.80;;;2.30;;
68097;SDS011;54886;47.036;15.466;2023-07-13T03:22:52;3.83;;;2.03;;
68097;SDS011;54886;47.036;15.466;2023-07-13T03:25:17;4.28;;;2.22;;
68097;SDS011;54886;47.036;15.466;2023-07-13T03:31:06;6.78;;;2.28;;
68097;SDS011;54886;47.036;15.466;2023-07-13T03:33:34;3.30;;;2.10;;
68097;SDS011;54886;47.036;15.466;2023-07-13T03:36:01;4.07;;;2.20;;
68097;SDS011;54886;47.036;15.466;2023-07-13T03:41:50;4.60;;;2.05;;
68097;SDS011;54886;47.036;15.466;2023-07-13T03:44:16;7.82;;;2.60;;
68097;SDS011;54886;47.036;15.466;2023-07-13T03:49:09;6.47;;;2.33;;
68097;SDS011;54886;47.036;15.466;2023-07-13T03:51:36;7.30;;;2.42;;
68097;SDS011;54886;47.036;15.466;2023-07-13T03:57:25;5.80;;;2.40;;
68097;SDS011;54886;47.036;15.466;2023-07-13T03:59:51;6.88;;;2.10;;
68097;SDS011;54886;47.036;15.466;2023-07-13T04:02:17;6.20;;;2.45;;
68097;SDS011;54886;47.036;15.466;2023-07-13T04:04:43;3.25;;;2.13;;
68097;SDS011;54886;47.036;15.466;2023-07-13T04:07:09;4.95;;;2.00;;
68097;SDS011;54886;47.036;15.466;2023-07-13T04:09:35;6.13;;;2.22;;
68097;SDS011;54886;47.036;15.466;2023-07-13T04:12:01;6.65;;;2.20;;
68097;SDS011;54886;47.036;15.466;2023-07-13T04:14:27;4.82;;;2.25;;
68097;SDS011;54886;47.036;15.466;2023-07-13T04:16:53;4.03;;;2.08;;
68097;SDS011;54886;47.036;15.466;2023-07-13T04:19:19;4.65;;;2.10;;
68097;SDS011;54886;47.036;15.466;2023-07-13T04:21:45;5.70;;;2.10;;
68097;SDS011;54886;47.036;15.466;2023-07-13T04:27:33;3.95;;;2.20;;
68097;SDS011;54886;47.036;15.466;2023-07-13T04:29:59;4.28;;;1.83;;
68097;SDS011;54886;47.036;15.466;2023-07-13T04:32:24;3.25;;;2.08;;
68097;SDS011;54886;47.036;15.466;2023-07-13T04:34:50;7.32;;;2.25;;
68097;SDS011;54886;47.036;15.466;2023-07-13T04:37:18;3.22;;;1.88;;
68097;SDS011;54886;47.036;15.466;2023-07-13T04:43:13;3.78;;;1.90;;
68097;SDS011;54886;47.036;15.466;2023-07-13T04:45:38;4.28;;;2.20;;
68097;SDS011;54886;47.036;15.466;2023-07-13T04:48:04;5.68;;;2.40;;
68097;SDS011;54886;47.036;15.466;2023-07-13T04:50:30;3.92;;;2.00;;
68097;SDS011;54886;47.036;15.466;2023-07-13T04:52:56;4.95;;;2.40;;
68097;SDS011;54886;47.036;15.466;2023-07-13T04:58:43;3.30;;;2.08;;
68097;SDS011;54886;47.036;15.466;2023-07-13T05:01:09;4.72;;;2.28;;
68097;SDS011;54886;47.036;15.466;2023-07-13T05:03:35;3.35;;;2.00;;
68097;SDS011;54886;47.036;15.466;2023-07-13T05:06:02;5.68;;;2.05;;
68097;SDS011;54886;47.036;15.466;2023-07-13T05:08:35;3.30;;;2.13;;
68097;SDS011;54886;47.036;15.466;2023-07-13T05:14:22;2.97;;;2.00;;
68097;SDS011;54886;47.036;15.466;2023-07-13T05:16:48;4.47;;;2.00;;
68097;SDS011;54886;47.036;15.466;2023-07-13T05:22:35;3.30;;;1.83;;
68097;SDS011;54886;47.036;15.466;2023-07-13T05:28:23;6.18;;;2.30;;
68097;SDS011;54886;47.036;15.466;2023-07-13T05:34:10;9.68;;;2.13;;
68097;SDS011;54886;47.036;15.466;2023-07-13T05:39:58;3.42;;;1.95;;
68097;SDS011;54886;47.036;15.466;2023-07-13T05:42:24;6.85;;;2.08;;
68097;SDS011;54886;47.036;15.466;2023-07-13T05:44:49;3.85;;;2.00;;
68097;SDS011;54886;47.036;15.466;2023-07-13T05:50:36;4.05;;;1.75;;
68097;SDS011;54886;47.036;15.466;2023-07-13T05:53:02;2.40;;;1.98;;
68097;SDS011;54886;47.036;15.466;2023-07-13T05:55:28;4.10;;;1.80;;
68097;SDS011;54886;47.036;15.466;2023-07-13T05:57:54;4.45;;;2.03;;
68097;SDS011;54886;47.036;15.466;2023-07-13T06:03:42;2.75;;;1.98;;
68097;SDS011;54886;47.036;15.466;2023-07-13T06:06:08;3.65;;;1.88;;
68097;SDS011;54886;47.036;15.466;2023-07-13T06:08:35;3.72;;;2.10;;
68097;SDS011;54886;47.036;15.466;2023-07-13T06:11:08;4.63;;;1.90;;
68097;SDS011;54886;47.036;15.466;2023-07-13T06:13:38;2.58;;;1.75;;
68097;SDS011;54886;47.036;15.466;2023-07-13T06:16:04;3.42;;;2.03;;
68097;SDS011;54886;47.036;15.466;2023-07-13T06:21:51;3.88;;;1.90;;
68097;SDS011;54886;47.036;15.466;2023-07-13T06:24:17;3.08;;;2.00;;
68097;SDS011;54886;47.036;15.466;2023-07-13T06:26:43;8.13;;;1.92;;
68097;SDS011;54886;47.036;15.466;2023-07-13T06:29:08;4.68;;;2.00;;
68097;SDS011;54886;47.036;15.466;2023-07-13T06:31:34;4.45;;;2.30;;
68097;SDS011;54886;47.036;15.466;2023-07-13T06:34:00;5.55;;;1.73;;
68097;SDS011;54886;47.036;15.466;2023-07-13T06:36:25;7.47;;;2.00;;
68097;SDS011;54886;47.036;15.466;2023-07-13T06:38:51;4.93;;;1.83;;
68097;SDS011;54886;47.036;15.466;2023-07-13T06:41:17;2.50;;;1.58;;
68097;SDS011;54886;47.036;15.466;2023-07-13T06:47:05;3.95;;;1.70;;
68097;SDS011;54886;47.036;15.466;2023-07-13T06:49:31;3.15;;;1.90;;
68097;SDS011;54886;47.036;15.466;2023-07-13T06:51:58;3.47;;;1.90;;
68097;SDS011;54886;47.036;15.466;2023-07-13T06:57:46;4.00;;;2.10;;
68097;SDS011;54886;47.036;15.466;2023-07-13T07:00:12;4.85;;;1.80;;
68097;SDS011;54886;47.036;15.466;2023-07-13T07:02:39;5.22;;;1.80;;
68097;SDS011;54886;47.036;15.466;2023-07-13T07:05:05;4.32;;;1.88;;
68097;SDS011;54886;47.036;15.466;2023-07-13T07:07:31;3.60;;;1.92;;
68097;SDS011;54886;47.036;15.466;2023-07-13T07:13:18;2.65;;;1.67;;
68097;SDS011;54886;47.036;15.466;2023-07-13T07:15:45;4.93;;;1.80;;
68097;SDS011;54886;47.036;15.466;2023-07-13T07:18:11;2.73;;;1.60;;
68097;SDS011;54886;47.036;15.466;2023-07-13T07:20:37;2.95;;;1.45;;
68097;SDS011;54886;47.036;15.466;2023-07-13T07:23:04;3.88;;;1.80;;
68097;SDS011;54886;47.036;15.466;2023-07-13T07:25:30;2.58;;;1.60;;
68097;SDS011;54886;47.036;15.466;2023-07-13T07:27:57;2.53;;;1.60;;
68097;SDS011;54886;47.036;15.466;2023-07-13T07:33:45;2.45;;;1.35;;
68097;SDS011;54886;47.036;15.466;2023-07-13T07:36:12;2.42;;;1.50;;
68097;SDS011;54886;47.036;15.466;2023-07-13T07:38:39;2.20;;;1.33;;
68097;SDS011;54886;47.036;15.466;2023-07-13T07:41:04;1.25;;;1.20;;
68097;SDS011;54886;47.036;15.466;2023-07-13T07:43:30;1.77;;;1.30;;
68097;SDS011;54886;47.036;15.466;2023-07-13T07:45:57;2.08;;;1.40;;
68097;SDS011;54886;47.036;15.466;2023-07-13T07:48:22;1.98;;;1.40;;
68097;SDS011;54886;47.036;15.466;2023-07-13T07:54:10;2.50;;;1.38;;
68097;SDS011;54886;47.036;15.466;2023-07-13T07:56:36;1.85;;;1.40;;
68097;SDS011;54886;47.036;15.466;2023-07-13T07:59:02;1.90;;;1.48;;
68097;SDS011;54886;47.036;15.466;2023-07-13T08:01:27;4.60;;;1.50;;
68097;SDS011;54886;47.036;15.466;2023-07-13T08:03:53;3.13;;;1.50;;
68097;SDS011;54886;47.036;15.466;2023-07-13T08:09:40;1.48;;;1.30;;
68097;SDS011;54886;47.036;15.466;2023-07-13T08:12:06;1.50;;;1.40;;
68097;SDS011;54886;47.036;15.466;2023-07-13T08:14:32;2.10;;;1.52;;
68097;SDS011;54886;47.036;15.466;2023-07-13T08:16:58;2.78;;;1.50;;
68097;SDS011;54886;47.036;15.466;2023-07-13T08:19:23;2.63;;;1.30;;
68097;SDS011;54886;47.036;15.466;2023-07-13T08:25:10;1.75;;;1.30;;
68097;SDS011;54886;47.036;15.466;2023-07-13T08:27:36;2.90;;;1.42;;
68097;SDS011;54886;47.036;15.466;2023-07-13T08:30:02;4.25;;;1.60;;
68097;SDS011;54886;47.036;15.466;2023-07-13T08:32:28;1.60;;;1.50;;
68097;SDS011;54886;47.036;15.466;2023-07-13T08:34:54;1.65;;;1.30;;
68097;SDS011;54886;47.036;15.466;2023-07-13T08:40:42;2.20;;;1.30;;
68097;SDS011;54886;47.036;15.466;2023-07-13T08:43:09;2.38;;;1.30;;
68097;SDS011;54886;47.036;15.466;2023-07-13T08:45:47;1.92;;;1.40;;
68097;SDS011;54886;47.036;15.466;2023-07-13T08:48:18;1.80;;;1.20;;
68097;SDS011;54886;47.036;15.466;2023-07-13T08:50:54;1.50;;;1.40;;
68097;SDS011;54886;47.036;15.466;2023-07-13T08:53:22;1.52;;;1.20;;
68097;SDS011;54886;47.036;15.466;2023-07-13T08:55:57;1.40;;;1.30;;
68097;SDS011;54886;47.036;15.466;2023-07-13T08:58:24;1.50;;;1.40;;
68097;SDS011;54886;47.036;15.466;2023-07-13T09:01:10;2.40;;;1.30;;
68097;SDS011;54886;47.036;15.466;2023-07-13T09:03:52;2.10;;;1.13;;
68097;SDS011;54886;47.036;15.466;2023-07-13T09:06:20;1.35;;;1.25;;
68097;SDS011;54886;47.036;15.466;2023-07-13T09:08:58;1.77;;;1.40;;
68097;SDS011;54886;47.036;15.466;2023-07-13T09:20:35;2.88;;;1.65;;
68097;SDS011;54886;47.036;15.466;2023-07-13T09:26:34;1.42;;;1.33;;
68097;SDS011;54886;47.036;15.466;2023-07-13T09:32:21;1.65;;;1.40;;
68097;SDS011;54886;47.036;15.466;2023-07-13T09:34:53;1.48;;;1.38;;
68097;SDS011;54886;47.036;15.466;2023-07-13T09:37:20;3.80;;;1.40;;
68097;SDS011;54886;47.036;15.466;2023-07-13T09:46:54;1.40;;;1.30;;
68097;SDS011;54886;47.036;15.466;2023-07-13T09:52:43;3.05;;;1.50;;
68097;SDS011;54886;47.036;15.466;2023-07-13T09:55:47;1.38;;;1.27;;
68097;SDS011;54886;47.036;15.466;2023-07-13T10:01:34;3.75;;;1.30;;
68097;SDS011;54886;47.036;15.466;2023-07-13T10:07:23;3.08;;;1.45;;
68097;SDS011;54886;47.036;15.466;2023-07-13T10:13:22;1.60;;;1.50;;
68097;SDS011;54886;47.036;15.466;2023-07-13T10:15:55;3.45;;;1.40;;
68097;SDS011;54886;47.036;15.466;2023-07-13T10:18:23;2.80;;;1.55;;
68097;SDS011;54886;47.036;15.466;2023-07-13T10:20:53;2.38;;;1.70;;
68097;SDS011;54886;47.036;15.466;2023-07-13T10:23:25;2.05;;;1.50;;
68097;SDS011;54886;47.036;15.466;2023-07-13T10:25:57;1.60;;;1.40;;
68097;SDS011;54886;47.036;15.466;2023-07-13T10:31:48;1.88;;;1.50;;
68097;SDS011;54886;47.036;15.466;2023-07-13T10:34:13;1.90;;;1.45;;
68097;SDS011;54886;47.036;15.466;2023-07-13T10:36:47;2.30;;;1.65;;
68097;SDS011;54886;47.036;15.466;2023-07-13T10:39:23;3.97;;;1.45;;
68097;SDS011;54886;47.036;15.466;2023-07-13T10:41:53;1.55;;;1.40;;
68097;SDS011;54886;47.036;15.466;2023-07-13T10:44:30;3.70;;;1.60;;
68097;SDS011;54886;47.036;15.466;2023-07-13T10:46:58;1.58;;;1.48;;
68097;SDS011;54886;47.036;15.466;2023-07-13T10:49:26;1.60;;;1.50;;
68097;SDS011;54886;47.036;15.466;2023-07-13T10:51:54;1.50;;;1.40;;
68097;SDS011;54886;47.036;15.466;2023-07-13T10:54:21;2.70;;;1.48;;
68097;SDS011;54886;47.036;15.466;2023-07-13T10:57:13;1.80;;;1.50;;
68097;SDS011;54886;47.036;15.466;2023-07-13T11:05:51;2.20;;;1.50;;
68097;SDS011;54886;47.036;15.466;2023-07-13T11:14:34;1.70;;;1.60;;
68097;SDS011;54886;47.036;15.466;2023-07-13T11:20:35;1.90;;;1.33;;
68097;SDS011;54886;47.036;15.466;2023-07-13T11:23:15;2.63;;;1.50;;
68097;SDS011;54886;47.036;15.466;2023-07-13T11:25:52;2.00;;;1.50;;
68097;SDS011;54886;47.036;15.466;2023-07-13T11:28:22;1.73;;;1.60;;
68097;SDS011;54886;47.036;15.466;2023-07-13T11:30:59;2.20;;;1.58;;
68097;SDS011;54886;47.036;15.466;2023-07-13T11:33:28;3.70;;;1.65;;
68097;SDS011;54886;47.036;15.466;2023-07-13T11:39:18;2.10;;;1.50;;
68097;SDS011;54886;47.036;15.466;2023-07-13T11:45:21;2.13;;;1.52;;
68097;SDS011;54886;47.036;15.466;2023-07-13T11:51:13;3.53;;;1.70;;
68097;SDS011;54886;47.036;15.466;2023-07-13T11:57:17;1.38;;;1.27;;
68097;SDS011;54886;47.036;15.466;2023-07-13T11:59:58;3.05;;;1.70;;
68097;SDS011;54886;47.036;15.466;2023-07-13T12:05:57;2.22;;;1.60;;
68097;SDS011;54886;47.036;15.466;2023-07-13T12:11:44;1.63;;;1.50;;
68097;SDS011;54886;47.036;15.466;2023-07-13T12:14:13;2.70;;;1.50;;
68097;SDS011;54886;47.036;15.466;2023-07-13T12:16:44;3.88;;;1.70;;
68097;SDS011;54886;47.036;15.466;2023-07-13T12:22:13;2.75;;;1.60;;
68097;SDS011;54886;47.036;15.466;2023-07-13T12:24:41;2.40;;;1.58;;
68097;SDS011;54886;47.036;15.466;2023-07-13T12:27:21;3.85;;;1.60;;
68097;SDS011;54886;47.036;15.466;2023-07-13T12:33:11;3.97;;;1.90;;
68097;SDS011;54886;47.036;15.466;2023-07-13T12:35:42;3.05;;;1.90;;
68097;SDS011;54886;47.036;15.466;2023-07-13T12:41:34;3.63;;;1.77;;
68097;SDS011;54886;47.036;15.466;2023-07-13T12:47:21;4.20;;;1.77;;
68097;SDS011;54886;47.036;15.466;2023-07-13T12:53:12;3.92;;;1.70;;
68097;SDS011;54886;47.036;15.466;2023-07-13T12:55:42;4.18;;;1.90;;
68097;SDS011;54886;47.036;15.466;2023-07-13T12:58:56;1.88;;;1.60;;
68097;SDS011;54886;47.036;15.466;2023-07-13T13:04:30;2.80;;;1.80;;
68097;SDS011;54886;47.036;15.466;2023-07-13T13:07:02;4.80;;;1.70;;
68097;SDS011;54886;47.036;15.466;2023-07-13T13:12:53;2.70;;;1.70;;
68097;SDS011;54886;47.036;15.466;2023-07-13T13:18:39;2.33;;;1.60;;
68097;SDS011;54886;47.036;15.466;2023-07-13T13:24:27;2.65;;;1.80;;
68097;SDS011;54886;47.036;15.466;2023-07-13T13:26:53;2.22;;;1.70;;
68097;SDS011;54886;47.036;15.466;2023-07-13T13:29:22;5.53;;;2.00;;
68097;SDS011;54886;47.036;15.466;2023-07-13T13:31:52;4.20;;;1.85;;
68097;SDS011;54886;47.036;15.466;2023-07-13T13:34:19;3.58;;;1.80;;
68097;SDS011;54886;47.036;15.466;2023-07-13T13:40:13;3.22;;;1.70;;
68097;SDS011;54886;47.036;15.466;2023-07-13T13:42:41;3.17;;;1.75;;
68097;SDS011;54886;47.036;15.466;2023-07-13T13:45:09;4.13;;;1.83;;
68097;SDS011;54886;47.036;15.466;2023-07-13T13:47:35;3.78;;;1.95;;
68097;SDS011;54886;47.036;15.466;2023-07-13T13:50:07;5.65;;;1.98;;
68097;SDS011;54886;47.036;15.466;2023-07-13T13:56:01;5.28;;;1.80;;
68097;SDS011;54886;47.036;15.466;2023-07-13T13:58:26;2.70;;;1.77;;
68097;SDS011;54886;47.036;15.466;2023-07-13T14:00:52;2.42;;;1.50;;
68097;SDS011;54886;47.036;15.466;2023-07-13T14:03:18;4.05;;;1.90;;
68097;SDS011;54886;47.036;15.466;2023-07-13T14:05:46;3.17;;;1.73;;
68097;SDS011;54886;47.036;15.466;2023-07-13T14:11:17;2.80;;;1.90;;
68097;SDS011;54886;47.036;15.466;2023-07-13T14:13:45;4.90;;;2.00;;
68097;SDS011;54886;47.036;15.466;2023-07-13T14:16:18;2.63;;;1.63;;
68097;SDS011;54886;47.036;15.466;2023-07-13T14:18:46;3.40;;;1.70;;
68097;SDS011;54886;47.036;15.466;2023-07-13T14:21:19;3.95;;;1.83;;
68097;SDS011;54886;47.036;15.466;2023-07-13T14:27:09;2.20;;;1.63;;
68097;SDS011;54886;47.036;15.466;2023-07-13T14:29:36;2.35;;;1.95;;
68097;SDS011;54886;47.036;15.466;2023-07-13T14:32:01;1.80;;;1.60;;
68097;SDS011;54886;47.036;15.466;2023-07-13T14:34:27;2.35;;;1.60;;
68097;SDS011;54886;47.036;15.466;2023-07-13T14:36:53;1.77;;;1.67;;
68097;SDS011;54886;47.036;15.466;2023-07-13T14:39:20;1.98;;;1.60;;
68097;SDS011;54886;47.036;15.466;2023-07-13T14:41:49;1.90;;;1.42;;
68097;SDS011;54886;47.036;15.466;2023-07-13T14:47:41;1.55;;;1.42;;
68097;SDS011;54886;47.036;15.466;2023-07-13T14:50:53;2.53;;;1.70;;
68097;SDS011;54886;47.036;15.466;2023-07-13T14:52:55;3.20;;;1.50;;
68097;SDS011;54886;47.036;15.466;2023-07-13T14:55:27;2.40;;;1.73;;
68097;SDS011;54886;47.036;15.466;2023-07-13T15:01:14;2.47;;;1.50;;
68097;SDS011;54886;47.036;15.466;2023-07-13T15:07:03;2.42;;;1.50;;
68097;SDS011;54886;47.036;15.466;2023-07-13T15:12:57;2.45;;;1.67;;
68097;SDS011;54886;47.036;15.466;2023-07-13T15:18:47;2.20;;;1.77;;
68097;SDS011;54886;47.036;15.466;2023-07-13T15:21:16;2.53;;;1.80;;
68097;SDS011;54886;47.036;15.466;2023-07-13T15:23:45;3.97;;;1.70;;
68097;SDS011;54886;47.036;15.466;2023-07-13T15:26:15;2.78;;;1.92;;
68097;SDS011;54886;47.036;15.466;2023-07-13T15:28:42;3.38;;;2.10;;
68097;SDS011;54886;47.036;15.466;2023-07-13T15:34:30;4.20;;;2.30;;
68097;SDS011;54886;47.036;15.466;2023-07-13T15:40:18;2.97;;;1.90;;
68097;SDS011;54886;47.036;15.466;2023-07-13T15:42:46;4.88;;;2.33;;
68097;SDS011;54886;47.036;15.466;2023-07-13T15:48:34;10.05;;;3.30;;
68097;SDS011;54886;47.036;15.466;2023-07-13T15:54:21;6.30;;;2.97;;
68097;SDS011;54886;47.036;15.466;2023-07-13T16:00:13;4.45;;;2.13;;
68097;SDS011;54886;47.036;15.466;2023-07-13T16:02:43;6.47;;;3.10;;
68097;SDS011;54886;47.036;15.466;2023-07-13T16:05:09;5.78;;;2.63;;
68097;SDS011;54886;47.036;15.466;2023-07-13T16:07:34;5.28;;;2.40;;
68097;SDS011;54886;47.036;15.466;2023-07-13T16:10:00;3.95;;;2.50;;
68097;SDS011;54886;47.036;15.466;2023-07-13T16:15:48;4.78;;;2.30;;
68097;SDS011;54886;47.036;15.466;2023-07-13T16:18:14;4.20;;;2.20;;
68097;SDS011;54886;47.036;15.466;2023-07-13T16:20:44;4.90;;;2.47;;
68097;SDS011;54886;47.036;15.466;2023-07-13T16:23:12;4.50;;;2.30;;
68097;SDS011;54886;47.036;15.466;2023-07-13T16:25:39;5.10;;;2.10;;
68097;SDS011;54886;47.036;15.466;2023-07-13T16:28:06;5.43;;;2.47;;
68097;SDS011;54886;47.036;15.466;2023-07-13T16:30:32;4.45;;;2.45;;
68097;SDS011;54886;47.036;15.466;2023-07-13T16:36:20;5.65;;;2.33;;
68097;SDS011;54886;47.036;15.466;2023-07-13T16:38:46;3.95;;;2.10;;
68097;SDS011;54886;47.036;15.466;2023-07-13T16:41:11;3.78;;;1.98;;
68097;SDS011;54886;47.036;15.466;2023-07-13T16:46:59;3.80;;;2.00;;
68097;SDS011;54886;47.036;15.466;2023-07-13T16:49:30;4.82;;;2.05;;
68097;SDS011;54886;47.036;15.466;2023-07-13T16:52:00;3.20;;;1.90;;
68097;SDS011;54886;47.036;15.466;2023-07-13T16:54:29;4.68;;;2.05;;
68097;SDS011;54886;47.036;15.466;2023-07-13T16:57:00;4.05;;;2.08;;
68097;SDS011;54886;47.036;15.466;2023-07-13T16:59:32;4.55;;;2.20;;
68097;SDS011;54886;47.036;15.466;2023-07-13T17:02:00;5.20;;;2.10;;
68097;SDS011;54886;47.036;15.466;2023-07-13T17:04:29;5.65;;;2.20;;
68097;SDS011;54886;47.036;15.466;2023-07-13T17:06:55;4.40;;;2.20;;
68097;SDS011;54886;47.036;15.466;2023-07-13T17:12:45;5.28;;;2.28;;
68097;SDS011;54886;47.036;15.466;2023-07-13T17:15:12;5.70;;;2.30;;
68097;SDS011;54886;47.036;15.466;2023-07-13T17:17:38;6.50;;;2.65;;
68097;SDS011;54886;47.036;15.466;2023-07-13T17:23:29;4.85;;;2.50;;
68097;SDS011;54886;47.036;15.466;2023-07-13T17:25:54;5.18;;;2.55;;
68097;SDS011;54886;47.036;15.466;2023-07-13T17:28:21;5.47;;;2.60;;
68097;SDS011;54886;47.036;15.466;2023-07-13T17:30:49;6.03;;;2.75;;
68097;SDS011;54886;47.036;15.466;2023-07-13T17:36:38;5.47;;;2.70;;
68097;SDS011;54886;47.036;15.466;2023-07-13T17:42:25;5.95;;;3.05;;
68097;SDS011;54886;47.036;15.466;2023-07-13T17:48:12;4.45;;;2.63;;
68097;SDS011;54886;47.036;15.466;2023-07-13T17:53:59;4.40;;;2.33;;
68097;SDS011;54886;47.036;15.466;2023-07-13T17:56:26;7.22;;;2.85;;
68097;SDS011;54886;47.036;15.466;2023-07-13T17:58:52;3.65;;;2.28;;
68097;SDS011;54886;47.036;15.466;2023-07-13T18:04:39;6.75;;;2.50;;
68097;SDS011;54886;47.036;15.466;2023-07-13T18:07:06;5.07;;;2.40;;
68097;SDS011;54886;47.036;15.466;2023-07-13T18:12:58;4.65;;;2.10;;
68097;SDS011;54886;47.036;15.466;2023-07-13T18:18:47;4.13;;;2.15;;
68097;SDS011;54886;47.036;15.466;2023-07-13T18:24:34;3.95;;;1.90;;
68097;SDS011;54886;47.036;15.466;2023-07-13T18:27:00;3.70;;;2.15;;
68097;SDS011;54886;47.036;15.466;2023-07-13T18:29:25;5.50;;;1.92;;
68097;SDS011;54886;47.036;15.466;2023-07-13T18:35:21;2.72;;;1.63;;
68097;SDS011;54886;47.036;15.466;2023-07-13T18:37:53;3.05;;;1.98;;
68097;SDS011;54886;47.036;15.466;2023-07-13T18:40:19;3.50;;;2.10;;
68097;SDS011;54886;47.036;15.466;2023-07-13T18:42:47;4.82;;;2.10;;
68097;SDS011;54886;47.036;15.466;2023-07-13T18:45:13;4.20;;;2.20;;
68097;SDS011;54886;47.036;15.466;2023-07-13T18:50:24;4.35;;;1.90;;
68097;SDS011;54886;47.036;15.466;2023-07-13T18:52:59;4.70;;;2.10;;
68097;SDS011;54886;47.036;15.466;2023-07-13T18:55:24;2.80;;;1.90;;
68097;SDS011;54886;47.036;15.466;2023-07-13T18:57:50;3.20;;;2.00;;
68097;SDS011;54886;47.036;15.466;2023-07-13T19:00:23;3.50;;;2.03;;
68097;SDS011;54886;47.036;15.466;2023-07-13T19:02:53;3.80;;;2.00;;
68097;SDS011;54886;47.036;15.466;2023-07-13T19:08:41;3.17;;;1.90;;
68097;SDS011;54886;47.036;15.466;2023-07-13T19:11:12;4.50;;;1.95;;
68097;SDS011;54886;47.036;15.466;2023-07-13T19:13:39;3.05;;;1.90;;
68097;SDS011;54886;47.036;15.466;2023-07-13T19:16:08;2.50;;;1.85;;
68097;SDS011;54886;47.036;15.466;2023-07-13T19:18:35;4.15;;;2.00;;
68097;SDS011;54886;47.036;15.466;2023-07-13T19:21:02;3.53;;;1.88;;
68097;SDS011;54886;47.036;15.466;2023-07-13T19:27:30;3.22;;;1.92;;
68097;SDS011;54886;47.036;15.466;2023-07-13T19:33:17;2.85;;;1.80;;
68097;SDS011;54886;47.036;15.466;2023-07-13T19:35:43;3.00;;;1.80;;
68097;SDS011;54886;47.036;15.466;2023-07-13T19:41:32;3.83;;;1.80;;
68097;SDS011;54886;47.036;15.466;2023-07-13T19:47:22;4.60;;;1.90;;
68097;SDS011;54886;47.036;15.466;2023-07-13T19:49:48;5.63;;;1.73;;
68097;SDS011;54886;47.036;15.466;2023-07-13T19:52:18;2.77;;;1.73;;
68097;SDS011;54886;47.036;15.466;2023-07-13T19:54:53;4.85;;;1.80;;
68097;SDS011;54886;47.036;15.466;2023-07-13T19:57:20;6.43;;;1.75;;
68097;SDS011;54886;47.036;15.466;2023-07-13T19:59:48;3.03;;;1.60;;
68097;SDS011;54886;47.036;15.466;2023-07-13T20:02:20;2.92;;;1.70;;
68097;SDS011;54886;47.036;15.466;2023-07-13T20:08:14;2.63;;;1.70;;
68097;SDS011;54886;47.036;15.466;2023-07-13T20:10:43;4.45;;;1.80;;
68097;SDS011;54886;47.036;15.466;2023-07-13T20:16:31;2.30;;;1.38;;
68097;SDS011;54886;47.036;15.466;2023-07-13T20:22:19;1.55;;;1.40;;
68097;SDS011;54886;47.036;15.466;2023-07-13T20:28:06;3.20;;;1.40;;
68097;SDS011;54886;47.036;15.466;2023-07-13T20:33:56;2.90;;;1.42;;
68097;SDS011;54886;47.036;15.466;2023-07-13T20:36:22;3.60;;;1.40;;
68097;SDS011;54886;47.036;15.466;2023-07-13T20:38:47;2.63;;;1.50;;
68097;SDS011;54886;47.036;15.466;2023-07-13T20:41:13;3.38;;;1.40;;
68097;SDS011;54886;47.036;15.466;2023-07-13T20:43:39;1.75;;;1.40;;
68097;SDS011;54886;47.036;15.466;2023-07-13T20:49:26;2.53;;;1.48;;
68097;SDS011;54886;47.036;15.466;2023-07-13T20:51:56;2.83;;;1.58;;